createdAt,value
2022-10-03T00:01:39.022Z,101080.50
2022-10-03T00:05:05.864Z,101104.09
2022-10-03T00:08:20.453Z,101102.22
2022-10-03T00:11:33.489Z,101091.38
2022-10-03T00:14:45.871Z,101091.38
2022-10-03T00:17:59.397Z,101096.78
2022-10-03T00:21:16.713Z,101096.78
2022-10-03T00:24:30.512Z,101097.69
2022-10-03T00:27:39.132Z,101111.16
2022-10-03T00:30:55.964Z,101115.66
2022-10-03T00:34:13.094Z,101106.00
2022-10-03T00:37:28.779Z,101120.16
2022-10-03T00:40:44.605Z,101119.28
2022-10-03T00:44:14.151Z,101114.97
2022-10-03T00:47:58.785Z,101127.72
2022-10-03T00:51:19.772Z,101126.75
2022-10-03T00:54:35.804Z,101120.41
2022-10-03T00:57:57.347Z,101119.56
2022-10-03T01:01:21.046Z,101127.72
2022-10-03T01:04:49.210Z,101123.47
2022-10-03T01:08:31.288Z,101130.00
2022-10-03T01:11:47.228Z,101123.69
2022-10-03T01:15:08.369Z,101122.84
2022-10-03T01:18:24.816Z,101125.53
2022-10-03T01:21:38.302Z,101127.44
2022-10-03T01:24:55.421Z,101126.84
2022-10-03T01:28:22.490Z,101132.31
2022-10-03T01:31:34.360Z,101122.72
2022-10-03T01:34:46.935Z,101137.84
2022-10-03T01:37:58.727Z,101141.50
2022-10-03T01:41:07.951Z,101135.22
2022-10-03T01:44:17.554Z,101141.59
2022-10-03T01:47:30.696Z,101149.91
2022-10-03T01:50:38.985Z,101156.38
2022-10-03T01:53:56.588Z,101160.09
2022-10-03T01:57:05.233Z,101163.75
2022-10-03T02:00:13.204Z,101154.88
2022-10-03T02:03:24.551Z,101165.91
2022-10-03T02:06:35.882Z,101171.28
2022-10-03T02:09:50.130Z,101173.09
2022-10-03T02:13:04.852Z,101161.38
2022-10-03T02:16:12.002Z,101167.88
2022-10-03T02:19:23.807Z,101168.03
2022-10-03T02:22:33.015Z,101162.88
2022-10-03T02:25:52.727Z,101173.47
2022-10-03T02:29:11.262Z,101180.81
2022-10-03T02:32:46.846Z,101186.34
2022-10-03T02:36:16.947Z,101186.19
2022-10-03T02:39:52.949Z,101185.28
2022-10-03T02:43:25.945Z,101186.41
2022-10-03T02:47:17.892Z,101194.59
2022-10-03T02:50:44.513Z,101179.09
2022-10-03T02:54:23.314Z,101180.00
2022-10-03T02:58:17.109Z,101183.66
2022-10-03T03:01:52.617Z,101186.59
2022-10-03T03:05:26.196Z,101189.56
2022-10-03T03:08:50.885Z,101195.88
2022-10-03T03:12:40.389Z,101190.44
2022-10-03T03:16:26.046Z,101191.16
2022-10-03T03:19:46.182Z,101196.59
2022-10-03T03:23:05.327Z,101194.75
2022-10-03T03:26:32.381Z,101200.19
2022-10-03T03:29:44.088Z,101202.94
2022-10-03T03:33:05.447Z,101209.41
2022-10-03T03:36:18.730Z,101205.81
2022-10-03T03:39:39.346Z,101209.69
2022-10-03T03:43:04.813Z,101208.78
2022-10-03T03:46:22.275Z,101208.66
2022-10-03T03:49:47.507Z,101217.66
2022-10-03T03:53:07.081Z,101220.34
2022-10-03T03:56:42.458Z,101224.03
2022-10-03T04:00:05.425Z,101219.50
2022-10-03T04:03:31.611Z,101217.66
2022-10-03T04:06:48.701Z,101227.50
2022-10-03T04:10:15.406Z,101224.88
2022-10-03T04:13:36.541Z,101223.28
2022-10-03T04:17:11.115Z,101236.06
2022-10-03T04:20:25.355Z,101230.84
2022-10-03T04:23:50.037Z,101238.25
2022-10-03T04:27:14.916Z,101232.94
2022-10-03T04:30:21.990Z,101221.41
2022-10-03T04:33:38.618Z,101233.78
2022-10-03T04:37:12.971Z,101233.97
2022-10-03T04:40:41.980Z,101236.56
2022-10-03T04:43:52.502Z,101235.50
2022-10-03T04:47:01.008Z,101239.91
2022-10-03T04:50:19.689Z,101237.25
2022-10-03T04:53:36.543Z,101247.13
2022-10-03T04:56:49.440Z,101244.41
2022-10-03T05:00:00.408Z,101245.25
2022-10-03T05:03:08.094Z,101247.13
2022-10-03T05:06:23.959Z,101252.59
2022-10-03T05:09:34.213Z,101243.38
2022-10-03T05:12:47.167Z,101252.47
2022-10-03T05:16:02.086Z,101257.75
2022-10-03T05:19:24.105Z,101258.66
2022-10-03T05:22:40.355Z,101264.84
2022-10-03T05:25:52.738Z,101263.00
2022-10-03T05:29:05.510Z,101267.38
2022-10-03T05:32:21.873Z,101263.69
2022-10-03T05:35:43.975Z,101266.38
2022-10-03T05:39:25.621Z,101270.78
2022-10-03T05:42:52.563Z,101266.25
2022-10-03T05:46:03.208Z,101273.41
2022-10-03T05:49:29.568Z,101275.22
2022-10-03T05:52:54.494Z,101273.34
2022-10-03T05:56:09.250Z,101274.13
2022-10-03T05:59:37.381Z,101282.16
2022-10-03T06:03:19.075Z,101290.19
2022-10-03T06:06:34.834Z,101285.59
2022-10-03T06:10:18.102Z,101297.34
2022-10-03T06:13:32.131Z,101293.66
2022-10-03T06:16:43.408Z,101291.97
2022-10-03T06:19:52.519Z,101307.91
2022-10-03T06:23:14.778Z,101310.53
2022-10-03T06:26:58.147Z,101284.66
2022-10-03T06:30:21.859Z,101306.63
2022-10-03T06:33:59.998Z,101309.19
2022-10-03T06:37:23.830Z,101313.59
2022-10-03T06:41:02.327Z,101313.59
2022-10-03T06:44:20.250Z,101321.59
2022-10-03T06:47:40.893Z,101316.94
2022-10-03T06:50:55.097Z,101320.16
2022-10-03T06:54:33.967Z,101327.78
2022-10-03T06:57:56.764Z,101318.28
2022-10-03T07:01:21.974Z,101329.53
2022-10-03T07:04:49.866Z,101330.84
2022-10-03T07:08:30.217Z,101334.69
2022-10-03T07:12:12.073Z,101335.66
2022-10-03T07:16:10.674Z,101329.84
2022-10-03T07:19:58.320Z,101333.78
2022-10-03T07:23:33.192Z,101340.41
2022-10-03T07:27:02.704Z,101339.47
2022-10-03T07:30:12.144Z,101339.53
2022-10-03T07:33:39.391Z,101342.47
2022-10-03T07:37:15.940Z,101332.91
2022-10-03T07:40:34.819Z,101336.66
2022-10-03T07:44:07.450Z,101335.03
2022-10-03T07:47:49.555Z,101348.69
2022-10-03T07:51:08.983Z,101346.66
2022-10-03T07:54:44.506Z,101340.69
2022-10-03T07:58:19.381Z,101345.22
2022-10-03T08:01:47.247Z,101353.16
2022-10-03T08:05:18.943Z,101345.34
2022-10-03T08:08:53.180Z,101348.47
2022-10-03T08:12:45.800Z,101345.56
2022-10-03T08:16:06.900Z,101348.25
2022-10-03T08:19:28.758Z,101342.03
2022-10-03T08:22:47.279Z,101340.72
2022-10-03T08:26:05.893Z,101335.78
2022-10-03T08:29:23.697Z,101338.13
2022-10-03T08:32:48.725Z,101340.25
2022-10-03T08:36:09.737Z,101345.25
2022-10-03T08:39:15.245Z,101346.28
2022-10-03T08:42:50.049Z,101336.41
2022-10-03T08:46:15.582Z,101335.00
2022-10-03T08:49:41.807Z,101344.41
2022-10-03T08:53:06.940Z,101343.00
2022-10-03T08:56:15.735Z,101340.34
2022-10-03T09:00:01.782Z,101349.28
2022-10-03T09:03:46.249Z,101344.84
2022-10-03T09:07:20.453Z,101339.41
2022-10-03T09:10:37.417Z,101339.03
2022-10-03T09:14:13.335Z,101335.44
2022-10-03T09:17:42.882Z,101329.91
2022-10-03T09:21:37.117Z,101329.75
2022-10-03T09:25:07.878Z,101326.38
2022-10-03T09:28:39.644Z,101327.94
2022-10-03T09:32:24.544Z,101338.66
2022-10-03T09:36:11.990Z,101346.13
2022-10-03T09:39:52.410Z,101348.94
2022-10-03T09:43:12.702Z,101347.56
2022-10-03T09:47:18.150Z,101343.06
2022-10-03T09:51:09.272Z,101338.22
2022-10-03T09:54:54.196Z,101344.28
2022-10-03T09:58:43.669Z,101337.69
2022-10-03T10:01:53.045Z,101334.41
2022-10-03T10:05:14.737Z,101331.88
2022-10-03T10:08:43.163Z,101335.06
2022-10-03T10:12:07.243Z,101337.22
2022-10-03T10:15:39.697Z,101337.78
2022-10-03T10:19:22.967Z,101326.16
2022-10-03T10:23:02.955Z,101322.94
2022-10-03T10:26:43.711Z,101322.44
2022-10-03T10:30:22.475Z,101306.91
2022-10-03T10:34:06.786Z,101312.53
2022-10-03T10:37:54.186Z,101313.81
2022-10-03T10:41:44.825Z,101318.09
2022-10-03T10:45:36.859Z,101305.63
2022-10-03T10:49:27.076Z,101302.84
2022-10-03T10:52:48.375Z,101306.28
2022-10-03T10:56:23.753Z,101298.19
2022-10-03T11:00:02.300Z,101309.47
2022-10-03T11:03:47.931Z,101302.34
2022-10-03T11:07:31.174Z,101306.50
2022-10-03T11:10:40.633Z,101309.81
2022-10-03T11:14:13.404Z,101308.31
2022-10-03T11:17:44.632Z,101300.75
2022-10-03T11:21:43.748Z,101308.69
2022-10-03T11:25:35.179Z,101290.59
2022-10-03T11:29:11.433Z,101321.63
2022-10-03T11:33:01.714Z,101323.72
2022-10-03T11:36:49.316Z,101316.06
2022-10-03T11:40:03.557Z,101311.91
2022-10-03T11:43:47.171Z,101310.59
2022-10-03T11:47:16.499Z,101306.63
2022-10-03T11:50:31.206Z,101301.47
2022-10-03T11:53:47.222Z,101299.91
2022-10-03T11:56:52.843Z,101294.38
2022-10-03T12:00:04.031Z,101289.88
2022-10-03T12:03:22.132Z,101292.00
2022-10-03T12:07:06.059Z,101292.88
2022-10-03T12:10:19.591Z,101290.44
2022-10-03T12:13:30.397Z,101282.53
2022-10-03T12:16:58.446Z,101283.09
2022-10-03T12:20:16.050Z,101274.66
2022-10-03T12:23:37.278Z,101267.31
2022-10-03T12:26:52.451Z,101250.31
2022-10-03T12:29:59.690Z,101264.06
2022-10-03T12:33:18.701Z,101255.94
2022-10-03T12:36:29.366Z,101254.44
2022-10-03T12:39:41.084Z,101250.03
2022-10-03T12:42:52.593Z,101233.28
2022-10-03T12:46:01.292Z,101241.13
2022-10-03T12:49:12.735Z,101235.44
2022-10-03T12:52:24.224Z,101227.69
2022-10-03T12:55:32.015Z,101240.53
2022-10-03T12:58:47.814Z,101240.25
2022-10-03T13:02:16.865Z,101237.97
2022-10-03T13:05:41.333Z,101233.81
2022-10-03T13:08:56.109Z,101234.25
2022-10-03T13:12:07.462Z,101238.25
2022-10-03T13:15:45.728Z,101239.44
2022-10-03T13:18:54.769Z,101230.84
2022-10-03T13:22:06.245Z,101230.28
2022-10-03T13:25:15.859Z,101229.81
2022-10-03T13:28:24.116Z,101230.34
2022-10-03T13:31:32.256Z,101224.47
2022-10-03T13:34:41.739Z,101227.22
2022-10-03T13:38:06.297Z,101230.53
2022-10-03T13:41:18.590Z,101237.09
2022-10-03T13:44:24.505Z,101237.28
2022-10-03T13:47:43.445Z,101232.28
2022-10-03T13:50:52.599Z,101228.19
2022-10-03T13:54:02.824Z,101216.44
2022-10-03T13:57:15.596Z,101220.66
2022-10-03T14:00:21.351Z,101220.16
2022-10-03T14:03:33.126Z,101210.94
2022-10-03T14:06:44.794Z,101208.22
2022-10-03T14:10:06.231Z,101212.50
2022-10-03T14:13:19.743Z,101213.25
2022-10-03T14:16:30.243Z,101206.16
2022-10-03T14:19:39.249Z,101216.00
2022-10-03T14:22:56.929Z,101212.69
2022-10-03T14:26:07.111Z,101211.41
2022-10-03T14:29:20.282Z,101215.72
2022-10-03T14:32:46.685Z,101203.59
2022-10-03T14:35:59.164Z,101211.13
2022-10-03T14:39:16.263Z,101202.59
2022-10-03T14:42:36.608Z,101197.94
2022-10-03T14:45:44.749Z,101205.09
2022-10-03T14:48:51.600Z,101208.81
2022-10-03T14:52:01.747Z,101210.06
2022-10-03T14:55:14.607Z,101206.72
2022-10-03T14:58:23.182Z,101215.38
2022-10-03T15:01:28.895Z,101216.47
2022-10-03T15:04:35.603Z,101215.03
2022-10-03T15:07:40.794Z,101216.28
2022-10-03T15:10:46.151Z,101211.03
2022-10-03T15:13:56.270Z,101210.81
2022-10-03T15:17:01.007Z,101211.63
2022-10-03T15:20:06.877Z,101202.00
2022-10-03T15:23:20.039Z,101217.19
2022-10-03T15:26:26.064Z,101212.31
2022-10-03T15:29:32.445Z,101215.72
2022-10-03T15:32:39.361Z,101218.59
2022-10-03T15:35:47.544Z,101221.91
2022-10-03T15:38:53.815Z,101221.03
2022-10-03T15:42:04.493Z,101219.38
2022-10-03T15:45:19.946Z,101222.63
2022-10-03T15:48:26.087Z,101220.34
2022-10-03T15:51:32.946Z,101232.69
2022-10-03T15:54:38.732Z,101229.13
2022-10-03T15:57:46.631Z,101231.25
2022-10-03T16:01:09.524Z,101228.00
2022-10-03T16:04:19.181Z,101221.78
2022-10-03T16:07:30.854Z,101227.75
2022-10-03T16:10:39.613Z,101231.47
2022-10-03T16:13:47.671Z,101236.66
2022-10-03T16:16:55.675Z,101236.97
2022-10-03T16:20:03.994Z,101234.81
2022-10-03T16:23:17.380Z,101236.16
2022-10-03T16:26:24.816Z,101234.38
2022-10-03T16:29:32.542Z,101238.22
2022-10-03T16:32:41.084Z,101232.06
2022-10-03T16:35:46.409Z,101240.66
2022-10-03T16:38:57.287Z,101234.06
2022-10-03T16:42:10.162Z,101232.94
2022-10-03T16:45:24.851Z,101228.91
2022-10-03T16:48:49.584Z,101223.84
2022-10-03T16:52:00.608Z,101229.19
2022-10-03T16:55:06.990Z,101215.66
2022-10-03T16:58:18.735Z,101232.31
2022-10-03T17:01:33.799Z,101224.78
2022-10-03T17:04:40.122Z,101221.69
2022-10-03T17:07:46.218Z,101222.28
2022-10-03T17:10:55.426Z,101218.44
2022-10-03T17:14:03.009Z,101223.66
2022-10-03T17:17:14.768Z,101217.88
2022-10-03T17:20:28.792Z,101228.38
2022-10-03T17:23:35.861Z,101225.38
2022-10-03T17:26:42.068Z,101236.50
2022-10-03T17:29:50.532Z,101236.19
2022-10-03T17:33:01.633Z,101230.50
2022-10-03T17:36:27.441Z,101228.66
2022-10-03T17:39:44.853Z,101234.75
2022-10-03T17:42:55.379Z,101232.59
2022-10-03T17:46:06.903Z,101222.34
2022-10-03T17:49:21.933Z,101227.97
2022-10-03T17:52:26.820Z,101231.59
2022-10-03T17:55:32.810Z,101230.81
2022-10-03T17:58:41.288Z,101236.44
2022-10-03T18:01:46.520Z,101230.22
2022-10-03T18:04:59.141Z,101233.19
2022-10-03T18:08:07.910Z,101240.66
2022-10-03T18:11:22.134Z,101229.06
2022-10-03T18:14:42.960Z,101220.50
2022-10-03T18:18:00.307Z,101228.38
2022-10-03T18:21:07.348Z,101234.03
2022-10-03T18:24:31.586Z,101228.44
2022-10-03T18:28:12.498Z,101233.03
2022-10-03T18:31:19.293Z,101224.31
2022-10-03T18:34:28.346Z,101228.19
2022-10-03T18:38:11.955Z,101233.88
2022-10-03T18:41:19.123Z,101241.31
2022-10-03T18:44:24.968Z,101238.03
2022-10-03T18:47:34.503Z,101225.06
2022-10-03T18:50:53.478Z,101233.44
2022-10-03T18:54:00.258Z,101243.34
2022-10-03T18:57:15.592Z,101241.78
2022-10-03T19:00:20.900Z,101237.50
2022-10-03T19:03:30.487Z,101238.72
2022-10-03T19:06:38.276Z,101247.94
2022-10-03T19:09:46.216Z,101248.16
2022-10-03T19:12:58.316Z,101238.47
2022-10-03T19:16:23.847Z,101237.75
2022-10-03T19:19:33.139Z,101243.25
2022-10-03T19:22:41.646Z,101240.81
2022-10-03T19:25:49.407Z,101247.94
2022-10-03T19:28:57.223Z,101240.06
2022-10-03T19:32:04.657Z,101239.44
2022-10-03T19:35:08.666Z,101242.50
2022-10-03T19:38:18.148Z,101232.94
2022-10-03T19:41:29.440Z,101247.31
2022-10-03T19:44:33.663Z,101246.44
2022-10-03T19:47:40.581Z,101254.59
2022-10-03T19:50:43.681Z,101248.34
2022-10-03T19:53:47.081Z,101252.94
2022-10-03T19:56:50.798Z,101239.50
2022-10-03T20:00:00.220Z,101234.22
2022-10-03T20:03:13.574Z,101236.16
2022-10-03T20:06:19.657Z,101241.72
2022-10-03T20:09:26.039Z,101237.31
2022-10-03T20:12:31.999Z,101245.56
2022-10-03T20:15:41.932Z,101253.84
2022-10-03T20:18:48.821Z,101248.53
2022-10-03T20:21:54.297Z,101254.16
2022-10-03T20:24:57.451Z,101257.88
2022-10-03T20:28:04.701Z,101254.34
2022-10-03T20:31:09.674Z,101246.22
2022-10-03T20:34:16.173Z,101245.28
2022-10-03T20:37:36.805Z,101234.47
2022-10-03T20:40:46.301Z,101238.03
2022-10-03T20:43:56.950Z,101236.19
2022-10-03T20:47:07.381Z,101217.31
2022-10-03T20:50:20.286Z,101221.66
2022-10-03T20:53:26.429Z,101218.94
2022-10-03T20:56:38.975Z,101206.38
2022-10-03T20:59:46.797Z,101224.88
2022-10-03T21:02:57.960Z,101223.00
2022-10-03T21:06:03.065Z,101217.44
2022-10-03T21:09:07.017Z,101219.91
2022-10-03T21:12:18.352Z,101212.56
2022-10-03T21:15:32.069Z,101217.78
2022-10-03T21:18:38.999Z,101206.22
2022-10-03T21:21:46.800Z,101220.47
2022-10-03T21:24:56.974Z,101211.38
2022-10-03T21:27:59.853Z,101222.88
2022-10-03T21:31:19.646Z,101220.00
2022-10-03T21:34:31.419Z,101218.16
2022-10-03T21:37:44.226Z,101208.16
2022-10-03T21:41:09.536Z,101209.09
2022-10-03T21:44:28.570Z,101208.00
2022-10-03T21:47:43.815Z,101208.78
2022-10-03T21:50:55.037Z,101206.88
2022-10-03T21:54:14.438Z,101203.25
2022-10-03T21:57:26.550Z,101196.81
2022-10-03T22:00:31.438Z,101205.69
2022-10-03T22:03:44.303Z,101203.88
2022-10-03T22:06:57.255Z,101184.91
2022-10-03T22:10:00.516Z,101185.91
2022-10-03T22:13:08.794Z,101165.41
2022-10-03T22:16:20.671Z,101168.84
2022-10-03T22:19:34.413Z,101168.94
2022-10-03T22:22:50.841Z,101174.56
2022-10-03T22:26:04.446Z,101167.41
2022-10-03T22:29:22.053Z,101169.28
2022-10-03T22:32:34.135Z,101169.31
2022-10-03T22:35:49.519Z,101177.50
2022-10-03T22:38:54.566Z,101167.88
2022-10-03T22:41:59.745Z,101176.94
2022-10-03T22:45:05.243Z,101168.00
2022-10-03T22:48:14.842Z,101170.72
2022-10-03T22:51:21.118Z,101164.50
2022-10-03T22:54:33.898Z,101171.81
2022-10-03T22:57:37.939Z,101168.97
2022-10-03T23:00:43.990Z,101169.19
2022-10-03T23:03:47.907Z,101168.38
2022-10-03T23:07:06.313Z,101158.47
2022-10-03T23:10:24.706Z,101155.75
2022-10-03T23:13:37.108Z,101155.00
2022-10-03T23:16:54.973Z,101138.88
2022-10-03T23:20:09.975Z,101135.28
2022-10-03T23:23:16.515Z,101124.56
2022-10-03T23:26:45.505Z,101130.09
2022-10-03T23:30:29.854Z,101138.22
2022-10-03T23:33:54.127Z,101122.22
2022-10-03T23:37:01.756Z,101124.84
2022-10-03T23:40:30.100Z,101125.00
2022-10-03T23:43:38.770Z,101143.16
2022-10-03T23:46:43.267Z,101126.22
2022-10-03T23:49:49.578Z,101121.66
2022-10-03T23:52:55.902Z,101125.22
2022-10-03T23:56:00.081Z,101131.53
2022-10-03T23:59:13.635Z,101124.31
